Billings, MT (59105)

3:47 PM MDT on August 31, 2015 (GMT -0600)
The Lodge at Eagle Cliffs | | Change Station
CLOSE
Current Station
Personal Weather Station
Location: Billings, MT
Elevation: 3376 ft
Nearby Weather Stations

Elev 3376 ft 45.82 °N, 108.51 °W | Updated 12 minutes ago

Partly Cloudy
Partly Cloudy
83.8 °F
Feels Like 81 °F
N
2.2
Wind Variable Wind from SSW

Today
High -- | Low -- °F
--% Chance of Precip.
Yesterday
High -- | Low -- °F
Precip. -- in
6:33 AM 7:54 PM
Waning Gibbous, 93% visible
Pressure 29.84 in
Visibility 10.0 miles
Clouds Scattered Clouds 15000 ft
Scattered Clouds 24000 ft
Heat Index 81 °F
Dew Point 43 °F
Humidity 24%
Rainfall 0.00 in
Snow Depth Not available.
UV 6 out of 12
Pollen 8.80 out of 12
Air Quality Not available.
Flu Activity Not available.
METAR KBIL 312053Z VRB06KT 10SM SCT150 SCT240 26/02 A2992 RMK AO2 SLP103 T02610017 56023
Pressure 29.84 in
Visibility 10.0 miles
Clouds Scattered Clouds 15000 ft
Scattered Clouds 24000 ft
Heat Index 81 °F
Dew Point 43 °F
Humidity 24%
Rainfall 0.00 in
Snow Depth Not available.
UV 6 out of 12
Pollen 8.80 out of 12
Air Quality Not available.
Flu Activity Not available.
METAR KBIL 312053Z VRB06KT 10SM SCT150 SCT240 26/02 A2992 RMK AO2 SLP103 T02610017 56023

10-Day Weather Forecast

×

Almanac

Astronomy

Aug. 31, 2015 Rise Set
Actual Time
Civil Twilight
Nautical Twilight
Astronomical Twilight
Moon
Length of Visible Light
Length of Day
Tomorrow will be .
, % of the Moon is Illuminated

Today's Extremes

State Highs State Lows

Community

WunderPhotos

Upload Photos

1,851,377 photos uploaded!

WunderBlogs® & News

Nearby

Air Quality

  Air Quality AQ Index Pollutant
Not available.

Snow Depth

Station Depth Elevation

Earthquake Activity

City Distance Mag. Time & Date
Minimum magnitude displayed is 2.5.

Coastal Water Temperatures

Place Temperature

Stations

Nearby Weather Stations

Station Location Temp. Windchill Dew Point Humidity Wind Precip. Elev Updated Type